createdAt,value
2017-12-06T00:00:01.128Z,28.60
2017-12-06T00:02:29.056Z,23.73
2017-12-06T00:04:56.929Z,20.30
2017-12-06T00:07:24.801Z,20.90
2017-12-06T00:09:52.682Z,26.93
2017-12-06T00:12:26.692Z,21.67
2017-12-06T00:15:01.801Z,20.30
2017-12-06T00:17:29.778Z,19.40
2017-12-06T00:19:57.654Z,23.30
2017-12-06T00:22:25.507Z,22.97
2017-12-06T00:24:53.448Z,21.37
2017-12-06T00:27:21.282Z,19.03
2017-12-06T00:29:49.132Z,15.97
2017-12-06T00:32:17.011Z,24.00
2017-12-06T00:34:44.901Z,18.63
2017-12-06T00:37:12.741Z,18.23
2017-12-06T00:39:40.603Z,19.20
2017-12-06T00:42:08.444Z,19.30
2017-12-06T00:44:36.288Z,20.47
2017-12-06T00:47:04.220Z,16.60
2017-12-06T00:49:32.232Z,20.20
2017-12-06T00:52:00.098Z,16.87
2017-12-06T00:54:27.995Z,22.13
2017-12-06T00:56:57.723Z,20.43
2017-12-06T00:59:25.771Z,18.27
2017-12-06T01:01:53.925Z,16.37
2017-12-06T01:04:23.828Z,20.93
2017-12-06T01:06:51.713Z,23.47
2017-12-06T01:09:19.660Z,19.10
2017-12-06T01:11:47.532Z,21.17
2017-12-06T01:14:17.540Z,23.63
2017-12-06T01:16:45.461Z,27.13
2017-12-06T01:19:13.304Z,23.00
2017-12-06T01:21:41.204Z,21.27
2017-12-06T01:24:09.065Z,21.20
2017-12-06T01:26:36.936Z,20.33
2017-12-06T01:29:04.787Z,19.07
2017-12-06T01:31:32.872Z,22.80
2017-12-06T01:34:00.738Z,26.00
2017-12-06T01:36:28.670Z,22.07
2017-12-06T01:38:56.525Z,19.03
2017-12-06T01:41:24.458Z,18.57
2017-12-06T01:43:52.442Z,17.83
2017-12-06T01:46:20.365Z,22.53
2017-12-06T01:48:48.468Z,19.40
2017-12-06T01:51:16.459Z,18.27
2017-12-06T01:53:45.292Z,23.37
2017-12-06T01:56:13.171Z,20.07
2017-12-06T01:58:41.072Z,23.03
2017-12-06T02:01:08.943Z,20.00
2017-12-06T02:03:36.833Z,22.67
2017-12-06T02:06:04.731Z,25.07
2017-12-06T02:08:32.799Z,25.17
2017-12-06T02:11:00.767Z,27.20
2017-12-06T02:13:28.636Z,27.70
2017-12-06T02:15:56.539Z,43.63
2017-12-06T02:18:24.395Z,26.33
2017-12-06T02:20:52.319Z,29.07
2017-12-06T02:23:20.228Z,28.37
2017-12-06T02:25:48.072Z,32.10
2017-12-06T02:28:15.908Z,26.97
2017-12-06T02:30:43.804Z,26.93
2017-12-06T02:33:11.672Z,29.80
2017-12-06T02:35:39.508Z,27.23
2017-12-06T02:38:07.608Z,31.93
2017-12-06T02:40:41.679Z,26.20
2017-12-06T02:43:15.781Z,24.37
2017-12-06T02:45:43.623Z,23.63
2017-12-06T02:48:11.487Z,25.17
2017-12-06T02:50:39.401Z,20.77
2017-12-06T02:53:07.237Z,23.50
2017-12-06T02:55:35.116Z,22.93
2017-12-06T02:58:03.055Z,19.53
2017-12-06T03:00:30.908Z,17.20
2017-12-06T03:02:58.768Z,24.03
2017-12-06T03:05:26.656Z,20.93
2017-12-06T03:07:54.567Z,20.40
2017-12-06T03:10:22.462Z,21.53
2017-12-06T03:12:50.346Z,22.20
2017-12-06T03:15:18.298Z,19.50
2017-12-06T03:17:46.141Z,20.90
2017-12-06T03:20:14.010Z,23.70
2017-12-06T03:22:41.862Z,20.23
2017-12-06T03:25:09.745Z,20.23
2017-12-06T03:27:37.601Z,26.10
2017-12-06T03:30:05.469Z,20.73
2017-12-06T03:32:33.381Z,20.70
2017-12-06T03:35:01.248Z,22.57
2017-12-06T03:37:29.186Z,23.07
2017-12-06T03:39:57.115Z,21.00
2017-12-06T03:42:24.969Z,20.33
2017-12-06T03:44:52.826Z,19.20
2017-12-06T03:47:20.773Z,18.87
2017-12-06T03:49:48.717Z,20.97
2017-12-06T03:52:16.577Z,22.03
2017-12-06T03:54:44.458Z,18.80
2017-12-06T03:57:12.329Z,24.57
2017-12-06T03:59:40.202Z,22.97
2017-12-06T04:02:08.068Z,19.37
2017-12-06T04:04:35.918Z,26.37
2017-12-06T04:07:03.797Z,19.50
2017-12-06T04:09:31.697Z,22.90
2017-12-06T04:11:59.555Z,21.83
2017-12-06T04:14:27.403Z,18.83
2017-12-06T04:16:55.292Z,20.13
2017-12-06T04:19:23.156Z,20.83
2017-12-06T04:21:51.001Z,19.13
2017-12-06T04:24:18.902Z,19.30
2017-12-06T04:26:46.783Z,18.53
2017-12-06T04:29:14.681Z,20.80
2017-12-06T04:31:42.554Z,21.60
2017-12-06T04:34:10.405Z,22.87
2017-12-06T04:36:38.285Z,24.03
2017-12-06T04:39:06.170Z,23.10
2017-12-06T04:41:34.061Z,23.20
2017-12-06T04:44:01.978Z,26.33
2017-12-06T04:46:29.881Z,23.47
2017-12-06T04:48:57.797Z,24.90
2017-12-06T04:51:25.656Z,23.87
2017-12-06T04:53:53.645Z,23.27
2017-12-06T04:56:21.515Z,22.87
2017-12-06T04:58:49.366Z,20.93
2017-12-06T05:01:17.249Z,21.03
2017-12-06T05:03:45.130Z,21.83
2017-12-06T05:06:12.985Z,21.70
2017-12-06T05:08:40.865Z,22.77
2017-12-06T05:11:08.728Z,21.33
2017-12-06T05:13:36.580Z,28.43
2017-12-06T05:16:04.449Z,22.80
2017-12-06T05:18:32.298Z,26.83
2017-12-06T05:21:00.177Z,24.80
2017-12-06T05:23:28.061Z,23.37
2017-12-06T05:25:55.920Z,21.40
2017-12-06T05:28:23.776Z,25.00
2017-12-06T05:30:51.672Z,24.30
2017-12-06T05:33:19.548Z,22.17
2017-12-06T05:35:47.399Z,24.03
2017-12-06T05:38:15.273Z,24.63
2017-12-06T05:40:43.096Z,23.77
2017-12-06T05:43:10.975Z,22.17
2017-12-06T05:45:38.856Z,26.97
2017-12-06T05:48:06.697Z,23.97
2017-12-06T05:50:34.524Z,22.23
2017-12-06T05:53:02.493Z,24.63
2017-12-06T05:55:30.326Z,22.97
2017-12-06T05:57:58.201Z,22.50
2017-12-06T06:00:26.067Z,20.50
2017-12-06T06:02:53.942Z,23.00
2017-12-06T06:05:21.858Z,21.90
2017-12-06T06:07:49.733Z,21.70
2017-12-06T06:10:17.589Z,22.90
2017-12-06T06:12:45.451Z,24.83
2017-12-06T06:15:13.325Z,23.67
2017-12-06T06:17:41.188Z,22.57
2017-12-06T06:20:09.032Z,23.60
2017-12-06T06:22:36.924Z,24.80
2017-12-06T06:25:04.771Z,21.47
2017-12-06T06:27:32.620Z,22.87
2017-12-06T06:30:00.526Z,22.80
2017-12-06T06:32:28.400Z,22.00
2017-12-06T06:34:56.245Z,21.70
2017-12-06T06:37:24.128Z,20.20
2017-12-06T06:39:51.990Z,21.40
2017-12-06T06:42:19.919Z,23.37
2017-12-06T06:44:47.801Z,21.60
2017-12-06T06:47:15.666Z,22.20
2017-12-06T06:49:43.533Z,22.93
2017-12-06T06:52:11.436Z,20.20
2017-12-06T06:54:39.291Z,23.93
2017-12-06T06:57:07.121Z,21.43
2017-12-06T06:59:35.223Z,18.90
2017-12-06T07:02:03.076Z,18.97
2017-12-06T07:04:30.939Z,20.00
2017-12-06T07:06:58.869Z,23.77
2017-12-06T07:09:26.749Z,23.47
2017-12-06T07:11:54.708Z,21.67
2017-12-06T07:14:22.589Z,19.37
2017-12-06T07:16:51.549Z,22.20
2017-12-06T07:19:19.422Z,20.80
2017-12-06T07:21:47.311Z,19.80
2017-12-06T07:24:15.421Z,24.00
2017-12-06T07:26:43.281Z,19.33
2017-12-06T07:29:11.185Z,22.90
2017-12-06T07:31:39.034Z,22.33
2017-12-06T07:34:06.931Z,20.83
2017-12-06T07:36:34.990Z,22.27
2017-12-06T07:39:02.904Z,22.30
2017-12-06T07:41:30.783Z,26.97
2017-12-06T07:43:58.740Z,25.60
2017-12-06T07:46:26.608Z,25.27
2017-12-06T07:48:54.479Z,26.30
2017-12-06T07:51:22.381Z,27.47
2017-12-06T07:53:50.272Z,25.13
2017-12-06T07:56:18.137Z,27.70
2017-12-06T07:58:46.018Z,28.50
2017-12-06T08:01:13.908Z,26.63
2017-12-06T08:03:41.760Z,26.47
2017-12-06T08:06:09.667Z,26.20
2017-12-06T08:08:37.520Z,26.03
2017-12-06T08:11:05.371Z,26.23
2017-12-06T08:13:33.265Z,29.17
2017-12-06T08:16:01.144Z,36.03
2017-12-06T08:18:29.009Z,33.47
2017-12-06T08:20:56.904Z,26.93
2017-12-06T08:23:24.757Z,28.23
2017-12-06T08:25:52.601Z,29.83
2017-12-06T08:28:20.464Z,27.37
2017-12-06T08:30:48.364Z,26.43
2017-12-06T08:33:16.287Z,26.60
2017-12-06T08:35:44.268Z,25.40
2017-12-06T08:38:12.185Z,28.07
2017-12-06T08:40:40.041Z,28.17
2017-12-06T08:43:07.937Z,33.50
2017-12-06T08:45:36.008Z,25.37
2017-12-06T08:48:03.914Z,24.67
2017-12-06T08:50:31.827Z,30.67
2017-12-06T08:52:59.706Z,28.53
2017-12-06T08:55:27.577Z,29.63
2017-12-06T08:57:55.482Z,28.93
2017-12-06T09:00:23.352Z,27.10
2017-12-06T09:02:51.232Z,29.80
2017-12-06T09:05:19.144Z,28.73
2017-12-06T09:07:47.029Z,27.73
2017-12-06T09:10:14.908Z,29.03
2017-12-06T09:12:42.794Z,27.50
2017-12-06T09:15:10.676Z,25.30
2017-12-06T09:17:38.533Z,25.93
2017-12-06T09:20:06.435Z,27.00
2017-12-06T09:22:34.312Z,28.07
2017-12-06T09:25:02.192Z,30.50
2017-12-06T09:27:30.132Z,23.17
2017-12-06T09:29:58.052Z,24.10
2017-12-06T09:32:25.914Z,30.10
2017-12-06T09:34:53.793Z,30.83
2017-12-06T09:37:21.695Z,25.13
2017-12-06T09:39:49.564Z,38.43
2017-12-06T09:42:17.469Z,32.10
2017-12-06T09:44:45.345Z,30.20
2017-12-06T09:47:13.224Z,27.57
2017-12-06T09:49:41.122Z,26.10
2017-12-06T09:52:09.145Z,24.17
2017-12-06T09:54:37.013Z,22.60
2017-12-06T09:57:04.930Z,25.37
2017-12-06T09:59:32.776Z,27.00
2017-12-06T10:02:00.660Z,30.47
2017-12-06T10:04:28.562Z,28.63
2017-12-06T10:06:56.599Z,30.37
2017-12-06T10:09:24.473Z,28.70
2017-12-06T10:11:52.372Z,25.10
2017-12-06T10:14:20.233Z,23.70
2017-12-06T10:16:49.259Z,21.37
2017-12-06T10:19:17.201Z,24.10
2017-12-06T10:21:45.123Z,21.73
2017-12-06T10:24:13.013Z,26.90
2017-12-06T10:26:40.905Z,20.93
2017-12-06T10:29:08.800Z,24.03
2017-12-06T10:31:36.841Z,22.87
2017-12-06T10:34:04.715Z,20.90
2017-12-06T10:36:32.610Z,21.40
2017-12-06T10:39:00.520Z,22.20
2017-12-06T10:41:28.421Z,29.87
2017-12-06T10:43:56.280Z,25.13
2017-12-06T10:46:24.257Z,25.53
2017-12-06T10:48:52.136Z,23.70
2017-12-06T10:51:19.984Z,21.37
2017-12-06T10:53:47.859Z,18.97
2017-12-06T10:56:15.753Z,20.60
2017-12-06T10:58:43.612Z,23.67
2017-12-06T11:01:11.470Z,24.40
2017-12-06T11:03:39.400Z,25.20
2017-12-06T11:06:07.345Z,19.30
2017-12-06T11:08:35.290Z,25.20
2017-12-06T11:11:03.184Z,21.53
2017-12-06T11:13:31.108Z,19.70
2017-12-06T11:15:58.976Z,21.53
2017-12-06T11:18:26.942Z,23.20
2017-12-06T11:20:54.879Z,21.47
2017-12-06T11:23:22.727Z,25.37
2017-12-06T11:25:50.620Z,20.33
2017-12-06T11:28:18.484Z,25.33
2017-12-06T11:30:46.392Z,22.13
2017-12-06T11:33:14.280Z,20.87
2017-12-06T11:35:42.124Z,26.73
2017-12-06T11:38:10.003Z,20.20
2017-12-06T11:40:37.913Z,20.00
2017-12-06T11:43:05.786Z,20.07
2017-12-06T11:45:33.689Z,20.43
2017-12-06T11:48:01.596Z,21.63
2017-12-06T11:50:29.469Z,24.43
2017-12-06T11:52:57.569Z,22.87
2017-12-06T11:55:25.457Z,20.80
2017-12-06T11:57:53.371Z,24.37
2017-12-06T12:00:21.265Z,21.97
2017-12-06T12:02:49.188Z,22.27
2017-12-06T12:05:18.109Z,20.80
2017-12-06T12:07:46.017Z,24.40
2017-12-06T12:10:13.956Z,22.73
2017-12-06T12:12:41.820Z,21.10
2017-12-06T12:15:09.751Z,23.90
2017-12-06T12:17:37.894Z,24.93
2017-12-06T12:20:05.773Z,22.40
2017-12-06T12:22:33.668Z,27.10
2017-12-06T12:25:01.575Z,22.07
2017-12-06T12:27:29.645Z,19.70
2017-12-06T12:29:57.524Z,23.47
2017-12-06T12:32:25.422Z,25.73
2017-12-06T12:34:53.296Z,24.83
2017-12-06T12:37:21.183Z,25.33
2017-12-06T12:39:49.112Z,21.73
2017-12-06T12:42:17.040Z,23.73
2017-12-06T12:44:44.908Z,22.93
2017-12-06T12:47:12.880Z,21.10
2017-12-06T12:49:40.783Z,20.17
2017-12-06T12:52:08.684Z,25.70
2017-12-06T12:54:36.643Z,22.23
2017-12-06T12:57:04.533Z,26.70
2017-12-06T12:59:32.388Z,28.83
2017-12-06T13:02:00.460Z,22.20
2017-12-06T13:04:28.325Z,23.80
2017-12-06T13:06:56.197Z,25.27
2017-12-06T13:09:24.097Z,20.60
2017-12-06T13:11:52.204Z,24.30
2017-12-06T13:14:20.092Z,23.07
2017-12-06T13:16:48.014Z,22.27
2017-12-06T13:19:15.877Z,24.20
2017-12-06T13:21:43.733Z,27.10
2017-12-06T13:24:11.637Z,24.97
2017-12-06T13:26:39.512Z,24.53
2017-12-06T13:29:08.345Z,25.07
2017-12-06T13:31:36.211Z,25.77
2017-12-06T13:34:04.107Z,31.00
2017-12-06T13:36:32.158Z,28.37
2017-12-06T13:39:00.072Z,23.57
2017-12-06T13:41:28.131Z,26.47
2017-12-06T13:43:56.002Z,25.30
2017-12-06T13:46:23.900Z,24.30
2017-12-06T13:48:51.808Z,21.77
2017-12-06T13:51:19.670Z,23.57
2017-12-06T13:53:47.586Z,23.97
2017-12-06T13:56:15.436Z,25.17
2017-12-06T13:58:43.354Z,19.60
2017-12-06T14:01:11.263Z,20.33
2017-12-06T14:03:39.227Z,21.30
2017-12-06T14:06:07.096Z,22.90
2017-12-06T14:08:35.004Z,22.67
2017-12-06T14:11:02.936Z,22.17
2017-12-06T14:13:30.799Z,23.43
2017-12-06T14:15:58.888Z,17.77
2017-12-06T14:18:26.742Z,22.37
2017-12-06T14:20:54.600Z,21.77
2017-12-06T14:23:22.564Z,20.80
2017-12-06T14:25:50.504Z,25.23
2017-12-06T14:28:18.515Z,19.40
2017-12-06T14:30:46.397Z,19.03
2017-12-06T14:33:14.255Z,26.57
2017-12-06T14:35:43.149Z,18.40
2017-12-06T14:38:11.062Z,17.90
2017-12-06T14:40:39.105Z,19.50
2017-12-06T14:43:07.003Z,16.33
2017-12-06T14:45:34.927Z,18.90
2017-12-06T14:48:02.861Z,17.97
2017-12-06T14:50:30.735Z,28.73
2017-12-06T14:52:58.738Z,24.60
2017-12-06T14:55:26.673Z,17.67
2017-12-06T14:57:56.445Z,21.40
2017-12-06T15:00:24.546Z,17.87
2017-12-06T15:02:52.897Z,24.63
2017-12-06T15:05:21.113Z,19.57
2017-12-06T15:07:49.176Z,16.77
2017-12-06T15:10:17.128Z,17.90
2017-12-06T15:12:48.877Z,18.50
2017-12-06T15:15:16.856Z,23.10
2017-12-06T15:17:44.905Z,18.47
2017-12-06T15:20:13.893Z,18.37
2017-12-06T15:22:42.020Z,17.73
2017-12-06T15:25:09.954Z,18.37
2017-12-06T15:27:38.392Z,15.03
2017-12-06T15:30:06.491Z,20.10
2017-12-06T15:32:34.556Z,18.83
2017-12-06T15:35:03.504Z,19.90
2017-12-06T15:37:31.843Z,24.27
2017-12-06T15:40:00.396Z,25.90
2017-12-06T15:42:28.659Z,21.87
2017-12-06T15:44:56.608Z,24.53
2017-12-06T15:47:24.509Z,19.03
2017-12-06T15:49:52.424Z,18.57
2017-12-06T15:52:20.323Z,20.00
2017-12-06T15:54:48.282Z,18.57
2017-12-06T15:57:16.170Z,18.90
2017-12-06T15:59:44.055Z,19.83
2017-12-06T16:02:11.979Z,17.63
2017-12-06T16:04:39.880Z,24.03
2017-12-06T16:07:07.755Z,27.80
2017-12-06T16:09:36.097Z,19.03
2017-12-06T16:12:04.078Z,21.10
2017-12-06T16:14:32.092Z,20.30
2017-12-06T16:16:59.993Z,20.53
2017-12-06T16:19:27.965Z,23.17
2017-12-06T16:21:55.845Z,29.50
2017-12-06T16:24:23.693Z,17.87
2017-12-06T16:26:51.567Z,16.60
2017-12-06T16:29:19.501Z,15.50
2017-12-06T16:31:47.389Z,17.93
2017-12-06T16:34:15.405Z,15.70
2017-12-06T16:36:49.556Z,13.20
2017-12-06T16:39:17.504Z,17.53
2017-12-06T16:41:45.407Z,21.63
2017-12-06T16:44:13.414Z,16.50
2017-12-06T16:46:41.372Z,14.37
2017-12-06T16:49:09.304Z,16.20
2017-12-06T16:51:37.248Z,12.53
2017-12-06T16:54:05.434Z,15.83
2017-12-06T16:56:33.484Z,10.80
2017-12-06T16:59:01.550Z,12.33
2017-12-06T17:01:29.455Z,15.30
2017-12-06T17:03:57.369Z,17.57
2017-12-06T17:06:25.590Z,11.30
2017-12-06T17:08:53.636Z,12.60
2017-12-06T17:11:21.523Z,14.87
2017-12-06T17:13:49.445Z,13.80
2017-12-06T17:16:17.613Z,14.37
2017-12-06T17:18:45.489Z,15.10
2017-12-06T17:21:13.389Z,13.77
2017-12-06T17:23:41.393Z,14.70
2017-12-06T17:26:09.537Z,16.23
2017-12-06T17:28:57.999Z,13.20
2017-12-06T17:31:31.940Z,20.50
2017-12-06T17:33:59.968Z,12.63
2017-12-06T17:36:27.944Z,15.80
2017-12-06T17:38:55.837Z,11.40
2017-12-06T17:41:23.728Z,13.77
2017-12-06T17:43:51.601Z,13.63
2017-12-06T17:46:19.582Z,9.80
2017-12-06T17:48:47.600Z,15.63
2017-12-06T17:51:15.563Z,16.03
2017-12-06T17:53:43.636Z,16.63
2017-12-06T17:56:12.278Z,16.30
2017-12-06T17:58:48.401Z,12.90
2017-12-06T18:01:34.993Z,17.30
2017-12-06T18:04:04.785Z,16.40
2017-12-06T18:06:32.746Z,18.50
2017-12-06T18:09:00.861Z,19.73
2017-12-06T18:11:28.798Z,19.37
2017-12-06T18:13:56.705Z,14.10
2017-12-06T18:16:24.639Z,22.43
2017-12-06T18:18:52.524Z,17.60
2017-12-06T18:21:20.491Z,14.43
2017-12-06T18:23:48.408Z,17.40
2017-12-06T18:26:16.426Z,12.13
2017-12-06T18:28:45.968Z,14.67
2017-12-06T18:31:13.937Z,12.43
2017-12-06T18:33:43.073Z,11.67
2017-12-06T18:36:10.992Z,26.43
2017-12-06T18:38:38.860Z,15.50
2017-12-06T18:41:08.641Z,16.87
2017-12-06T18:43:36.629Z,18.43
2017-12-06T18:46:04.549Z,18.33
2017-12-06T18:48:32.447Z,19.07
2017-12-06T18:51:00.965Z,20.47
2017-12-06T18:53:28.917Z,19.80
2017-12-06T18:55:56.764Z,36.03
2017-12-06T18:58:24.660Z,30.13
2017-12-06T19:00:52.586Z,34.63
2017-12-06T19:03:20.486Z,17.20
2017-12-06T19:05:48.560Z,14.17
2017-12-06T19:08:16.425Z,16.47
2017-12-06T19:10:44.319Z,10.80
2017-12-06T19:13:12.257Z,13.80
2017-12-06T19:15:40.145Z,19.53
2017-12-06T19:18:08.000Z,14.40
2017-12-06T19:20:36.146Z,12.93
2017-12-06T19:23:04.060Z,14.97
2017-12-06T19:25:31.962Z,18.10
2017-12-06T19:27:59.876Z,26.40
2017-12-06T19:30:27.788Z,13.00
2017-12-06T19:32:55.628Z,15.27
2017-12-06T19:35:23.508Z,13.67
2017-12-06T19:37:51.350Z,14.40
2017-12-06T19:40:19.213Z,20.20
2017-12-06T19:42:47.134Z,14.63
2017-12-06T19:45:15.600Z,16.73
2017-12-06T19:47:43.544Z,22.20
2017-12-06T19:50:11.480Z,15.80
2017-12-06T19:52:39.360Z,13.73
2017-12-06T19:55:07.265Z,19.37
2017-12-06T19:57:35.160Z,16.07
2017-12-06T20:00:03.040Z,23.30
2017-12-06T20:02:30.928Z,18.47
2017-12-06T20:04:58.927Z,10.40
2017-12-06T20:07:26.828Z,13.73
2017-12-06T20:09:54.702Z,17.00
2017-12-06T20:12:22.649Z,12.40
2017-12-06T20:14:50.521Z,15.13
2017-12-06T20:17:18.429Z,13.37
2017-12-06T20:19:46.382Z,12.47
2017-12-06T20:22:14.245Z,12.77
2017-12-06T20:24:42.147Z,17.47
2017-12-06T20:27:10.025Z,16.57
2017-12-06T20:29:37.937Z,13.87
2017-12-06T20:32:05.844Z,16.57
2017-12-06T20:34:33.798Z,13.13
2017-12-06T20:37:01.911Z,14.10
2017-12-06T20:39:29.826Z,15.17
2017-12-06T20:41:57.735Z,12.40
2017-12-06T20:44:25.727Z,14.50
2017-12-06T20:46:53.584Z,14.00
2017-12-06T20:49:22.728Z,13.90
2017-12-06T20:51:50.673Z,13.50
2017-12-06T20:54:18.552Z,13.00
2017-12-06T20:56:46.509Z,10.90
2017-12-06T20:59:14.399Z,15.23
2017-12-06T21:01:42.367Z,17.53
2017-12-06T21:04:10.453Z,13.40
2017-12-06T21:06:38.381Z,18.50
2017-12-06T21:09:06.464Z,13.27
2017-12-06T21:11:34.316Z,24.00
2017-12-06T21:14:02.671Z,13.33
2017-12-06T21:16:44.127Z,15.57
2017-12-06T21:19:11.982Z,9.30
2017-12-06T21:21:39.865Z,11.40
2017-12-06T21:24:07.752Z,11.37
2017-12-06T21:26:35.605Z,10.10
2017-12-06T21:29:03.521Z,9.47
2017-12-06T21:31:31.419Z,9.87
2017-12-06T21:33:59.282Z,18.90
2017-12-06T21:36:27.159Z,12.97
2017-12-06T21:38:55.016Z,11.50
2017-12-06T21:41:22.896Z,13.47
2017-12-06T21:43:50.832Z,15.57
2017-12-06T21:46:18.747Z,12.50
2017-12-06T21:48:47.616Z,12.67
2017-12-06T21:51:15.493Z,13.90
2017-12-06T21:53:43.423Z,14.63
2017-12-06T21:56:11.291Z,10.37
2017-12-06T21:58:39.164Z,14.50
2017-12-06T22:01:07.069Z,13.93
2017-12-06T22:03:34.931Z,13.83
2017-12-06T22:06:02.782Z,13.10
2017-12-06T22:08:30.661Z,12.90
2017-12-06T22:10:58.567Z,10.73
2017-12-06T22:13:26.561Z,10.13
2017-12-06T22:15:54.466Z,11.57
2017-12-06T22:18:22.313Z,7.87
2017-12-06T22:20:50.222Z,8.73
2017-12-06T22:23:18.192Z,15.67
2017-12-06T22:25:46.103Z,10.80
2017-12-06T22:28:13.964Z,12.13
2017-12-06T22:30:41.864Z,13.00
2017-12-06T22:33:09.716Z,11.70
2017-12-06T22:35:37.561Z,12.63
2017-12-06T22:38:05.436Z,13.87
2017-12-06T22:40:33.296Z,13.97
2017-12-06T22:43:01.166Z,12.50
2017-12-06T22:45:29.088Z,13.23
2017-12-06T22:47:56.979Z,13.00
2017-12-06T22:50:24.850Z,11.43
2017-12-06T22:52:52.760Z,9.70
2017-12-06T22:55:20.648Z,16.47
2017-12-06T22:57:48.555Z,13.90
2017-12-06T23:00:16.503Z,10.43
2017-12-06T23:02:44.386Z,9.20
2017-12-06T23:05:12.258Z,10.47
2017-12-06T23:07:40.153Z,11.40
2017-12-06T23:10:08.025Z,14.63
2017-12-06T23:12:35.916Z,15.57
2017-12-06T23:15:03.801Z,11.83
2017-12-06T23:17:31.667Z,14.87
2017-12-06T23:19:59.536Z,16.83
2017-12-06T23:22:27.443Z,17.13
2017-12-06T23:24:55.320Z,17.50
2017-12-06T23:27:23.353Z,13.83
2017-12-06T23:29:51.323Z,19.77
2017-12-06T23:32:19.199Z,23.77
2017-12-06T23:34:47.068Z,12.53
2017-12-06T23:37:14.973Z,16.83
2017-12-06T23:39:42.824Z,18.13
2017-12-06T23:42:10.665Z,20.10
2017-12-06T23:44:38.582Z,13.30
2017-12-06T23:47:06.436Z,19.30
2017-12-06T23:49:34.288Z,14.73
2017-12-06T23:52:02.201Z,13.17
2017-12-06T23:54:30.059Z,12.07
2017-12-06T23:56:57.935Z,10.77
2017-12-06T23:59:25.835Z,11.50
